createdAt,value
2023-02-24T00:02:30.224Z,70.29
2023-02-24T00:05:19.820Z,70.18
2023-02-24T00:08:08.487Z,70.08
2023-02-24T00:10:58.132Z,70.06
2023-02-24T00:13:48.398Z,69.76
2023-02-24T00:16:38.669Z,69.80
2023-02-24T00:19:29.334Z,69.96
2023-02-24T00:22:18.821Z,70.05
2023-02-24T00:25:08.725Z,69.77
2023-02-24T00:28:01.974Z,69.98
2023-02-24T00:30:52.237Z,70.22
2023-02-24T00:33:43.066Z,69.95
2023-02-24T00:36:33.863Z,69.92
2023-02-24T00:39:30.770Z,69.87
2023-02-24T00:42:19.908Z,70.01
2023-02-24T00:45:10.345Z,69.97
2023-02-24T00:48:01.265Z,69.96
2023-02-24T00:50:52.282Z,70.39
2023-02-24T00:53:42.281Z,70.54
2023-02-24T00:56:31.403Z,70.77
2023-02-24T00:59:21.222Z,70.50
2023-02-24T01:02:11.436Z,70.83
2023-02-24T01:05:05.599Z,70.59
2023-02-24T01:07:55.067Z,70.53
2023-02-24T01:11:04.143Z,70.40
2023-02-24T01:13:52.278Z,70.41
2023-02-24T01:16:42.013Z,70.56
2023-02-24T01:19:32.785Z,70.65
2023-02-24T01:22:26.410Z,70.67
2023-02-24T01:25:15.800Z,70.97
2023-02-24T01:28:05.090Z,70.82
2023-02-24T01:30:56.286Z,70.96
2023-02-24T01:33:46.291Z,71.21
2023-02-24T01:36:35.800Z,71.30
2023-02-24T01:39:26.165Z,71.06
2023-02-24T01:42:20.064Z,71.30
2023-02-24T01:45:21.824Z,71.59
2023-02-24T01:48:13.990Z,71.27
2023-02-24T01:51:02.670Z,71.21
2023-02-24T01:53:52.696Z,71.23
2023-02-24T01:56:44.276Z,71.11
2023-02-24T01:59:36.214Z,71.34
2023-02-24T02:02:27.388Z,71.37
2023-02-24T02:05:16.537Z,71.27
2023-02-24T02:08:05.816Z,71.39
2023-02-24T02:10:59.208Z,71.40
2023-02-24T02:13:52.186Z,71.49
2023-02-24T02:16:54.531Z,71.80
2023-02-24T02:20:02.661Z,71.93
2023-02-24T02:23:24.145Z,72.12
2023-02-24T02:26:47.344Z,72.21
2023-02-24T02:29:59.810Z,72.40
2023-02-24T02:33:08.198Z,72.40
2023-02-24T02:36:13.908Z,72.92
2023-02-24T02:39:13.032Z,72.79
2023-02-24T02:42:14.782Z,72.86
2023-02-24T02:45:09.783Z,73.01
2023-02-24T02:48:06.365Z,73.09
2023-02-24T02:51:04.244Z,73.38
2023-02-24T02:54:02.750Z,73.42
2023-02-24T02:56:59.256Z,73.72
2023-02-24T02:59:52.089Z,73.72
2023-02-24T03:02:44.859Z,73.71
2023-02-24T03:05:38.887Z,73.79
2023-02-24T03:08:34.801Z,73.76
2023-02-24T03:11:25.625Z,73.85
2023-02-24T03:14:17.172Z,73.93
2023-02-24T03:17:10.668Z,74.08
2023-02-24T03:20:16.614Z,74.19
2023-02-24T03:23:10.905Z,74.45
2023-02-24T03:26:08.962Z,74.51
2023-02-24T03:29:07.985Z,74.62
2023-02-24T03:32:01.967Z,74.50
2023-02-24T03:34:55.539Z,74.69
2023-02-24T03:37:48.438Z,74.62
2023-02-24T03:40:39.392Z,74.73
2023-02-24T03:43:32.782Z,74.81
2023-02-24T03:46:25.036Z,74.81
2023-02-24T03:49:17.594Z,74.94
2023-02-24T03:52:23.041Z,74.93
2023-02-24T03:55:23.530Z,75.29
2023-02-24T03:58:19.591Z,75.44
2023-02-24T04:01:14.769Z,75.80
2023-02-24T04:04:14.578Z,75.71
2023-02-24T04:07:16.760Z,75.87
2023-02-24T04:10:10.572Z,76.17
2023-02-24T04:13:11.587Z,76.11
2023-02-24T04:16:05.143Z,76.39
2023-02-24T04:18:54.414Z,76.50
2023-02-24T04:21:48.422Z,76.43
2023-02-24T04:24:48.379Z,76.64
2023-02-24T04:27:37.230Z,76.57
2023-02-24T04:30:40.359Z,76.56
2023-02-24T04:33:29.149Z,76.63
2023-02-24T04:36:19.498Z,76.72
2023-02-24T04:39:10.061Z,76.57
2023-02-24T04:41:59.401Z,76.48
2023-02-24T04:44:48.483Z,76.71
2023-02-24T04:47:38.350Z,76.63
2023-02-24T04:50:28.427Z,76.71
2023-02-24T04:53:18.842Z,76.54
2023-02-24T04:56:10.177Z,76.51
2023-02-24T04:58:58.813Z,76.51
2023-02-24T05:01:52.042Z,76.63
2023-02-24T05:04:41.076Z,76.77
2023-02-24T05:07:31.316Z,77.00
2023-02-24T05:10:20.186Z,76.80
2023-02-24T05:13:14.428Z,76.87
2023-02-24T05:16:07.844Z,76.86
2023-02-24T05:19:10.599Z,76.82
2023-02-24T05:22:02.660Z,76.82
2023-02-24T05:24:51.756Z,76.84
2023-02-24T05:27:40.437Z,76.81
2023-02-24T05:30:30.566Z,76.76
2023-02-24T05:33:21.556Z,76.63
2023-02-24T05:36:12.505Z,76.50
2023-02-24T05:39:07.515Z,76.55
2023-02-24T05:41:57.233Z,76.52
2023-02-24T05:44:46.944Z,76.72
2023-02-24T05:47:37.238Z,76.55
2023-02-24T05:50:27.134Z,76.61
2023-02-24T05:53:16.607Z,76.70
2023-02-24T05:56:07.179Z,76.47
2023-02-24T05:59:02.058Z,76.44
2023-02-24T06:01:53.982Z,76.57
2023-02-24T06:04:51.884Z,76.55
2023-02-24T06:07:40.701Z,76.42
2023-02-24T06:10:33.832Z,76.43
2023-02-24T06:13:22.485Z,76.59
2023-02-24T06:16:13.585Z,76.53
2023-02-24T06:19:02.542Z,76.23
2023-02-24T06:21:54.479Z,76.21
2023-02-24T06:24:44.367Z,76.35
2023-02-24T06:27:34.220Z,76.37
2023-02-24T06:30:24.843Z,76.04
2023-02-24T06:33:14.397Z,75.70
2023-02-24T06:36:04.689Z,75.83
2023-02-24T06:38:56.740Z,75.66
2023-02-24T06:41:45.704Z,75.66
2023-02-24T06:44:36.912Z,75.63
2023-02-24T06:47:26.954Z,75.73
2023-02-24T06:50:19.600Z,75.61
2023-02-24T06:53:16.843Z,75.73
2023-02-24T06:56:15.737Z,75.52
2023-02-24T06:59:05.324Z,75.68
2023-02-24T07:01:54.518Z,75.58
2023-02-24T07:04:45.860Z,75.72
2023-02-24T07:07:34.481Z,75.79
2023-02-24T07:10:24.040Z,75.80
2023-02-24T07:13:16.120Z,75.78
2023-02-24T07:16:07.233Z,75.68
2023-02-24T07:18:57.540Z,75.90
2023-02-24T07:21:50.548Z,75.78
2023-02-24T07:24:45.043Z,76.04
2023-02-24T07:27:34.642Z,75.90
2023-02-24T07:30:26.125Z,76.05
2023-02-24T07:33:15.321Z,76.00
2023-02-24T07:36:08.662Z,76.27
2023-02-24T07:38:59.347Z,76.30
2023-02-24T07:41:49.794Z,76.22
2023-02-24T07:44:38.987Z,75.96
2023-02-24T07:47:29.965Z,75.96
2023-02-24T07:50:19.287Z,76.06
2023-02-24T07:53:10.302Z,76.01
2023-02-24T07:55:58.953Z,76.06
2023-02-24T07:58:51.326Z,75.88
2023-02-24T08:01:39.996Z,75.97
2023-02-24T08:04:33.945Z,76.21
2023-02-24T08:07:25.633Z,76.20
2023-02-24T08:10:25.159Z,76.69
2023-02-24T08:13:14.004Z,76.63
2023-02-24T08:16:07.703Z,76.94
2023-02-24T08:18:57.838Z,77.05
2023-02-24T08:21:51.007Z,77.34
2023-02-24T08:24:39.654Z,77.44
2023-02-24T08:27:31.524Z,78.47
2023-02-24T08:30:23.893Z,78.26
2023-02-24T08:33:16.829Z,77.84
2023-02-24T08:36:06.611Z,77.58
2023-02-24T08:38:59.715Z,77.61
2023-02-24T08:41:51.969Z,77.49
2023-02-24T08:44:42.443Z,78.01
2023-02-24T08:47:37.109Z,77.49
2023-02-24T08:50:31.091Z,77.56
2023-02-24T08:53:20.271Z,77.46
2023-02-24T08:56:12.351Z,77.33
2023-02-24T08:59:06.348Z,77.25
2023-02-24T09:02:14.796Z,76.94
2023-02-24T09:05:13.177Z,76.67
2023-02-24T09:08:05.103Z,77.00
2023-02-24T09:10:53.732Z,76.76
2023-02-24T09:13:53.007Z,76.70
2023-02-24T09:16:52.408Z,76.55
2023-02-24T09:20:00.586Z,76.60
2023-02-24T09:23:00.765Z,76.90
2023-02-24T09:25:54.337Z,76.88
2023-02-24T09:28:55.139Z,76.83
2023-02-24T09:31:55.816Z,76.86
2023-02-24T09:34:44.780Z,76.55
2023-02-24T09:37:33.816Z,76.96
2023-02-24T09:40:40.177Z,76.95
2023-02-24T09:43:30.985Z,76.85
2023-02-24T09:46:21.805Z,76.73
2023-02-24T09:49:19.088Z,76.73
2023-02-24T09:52:16.949Z,76.57
2023-02-24T09:55:25.548Z,76.69
2023-02-24T09:58:34.779Z,77.00
2023-02-24T10:01:43.314Z,76.80
2023-02-24T10:05:07.208Z,77.21
2023-02-24T10:07:59.596Z,77.33
2023-02-24T10:11:06.987Z,77.32
2023-02-24T10:14:03.355Z,76.96
2023-02-24T10:17:09.858Z,77.02
2023-02-24T10:20:14.382Z,76.84
2023-02-24T10:23:09.761Z,76.57
2023-02-24T10:26:07.296Z,76.64
2023-02-24T10:29:09.406Z,76.46
2023-02-24T10:32:17.046Z,76.27
2023-02-24T10:35:14.448Z,76.20
2023-02-24T10:38:05.732Z,76.30
2023-02-24T10:40:57.616Z,75.96
2023-02-24T10:43:56.490Z,76.15
2023-02-24T10:46:46.637Z,76.04
2023-02-24T10:49:42.956Z,76.03
2023-02-24T10:53:10.935Z,75.94
2023-02-24T10:56:26.747Z,75.67
2023-02-24T10:59:48.802Z,75.61
2023-02-24T11:02:57.082Z,75.84
2023-02-24T11:06:08.177Z,75.72
2023-02-24T11:09:19.592Z,75.68
2023-02-24T11:12:34.172Z,75.77
2023-02-24T11:15:45.812Z,76.12
2023-02-24T11:18:35.851Z,75.98
2023-02-24T11:21:28.681Z,76.09
2023-02-24T11:24:20.312Z,76.02
2023-02-24T11:27:11.748Z,76.47
2023-02-24T11:30:14.930Z,76.64
2023-02-24T11:33:22.713Z,76.32
2023-02-24T11:36:22.703Z,76.28
2023-02-24T11:39:32.028Z,76.32
2023-02-24T11:42:26.235Z,76.57
2023-02-24T11:45:26.345Z,76.23
2023-02-24T11:48:19.790Z,75.99
2023-02-24T11:51:13.190Z,75.97
2023-02-24T11:54:05.213Z,75.97
2023-02-24T11:56:59.146Z,75.49
2023-02-24T11:59:54.061Z,75.06
2023-02-24T12:02:49.301Z,74.64
2023-02-24T12:05:42.188Z,74.14
2023-02-24T12:08:36.124Z,73.99
2023-02-24T12:11:35.374Z,74.03
2023-02-24T12:14:33.852Z,73.85
2023-02-24T12:17:32.051Z,73.65
2023-02-24T12:20:27.979Z,73.56
2023-02-24T12:23:19.048Z,73.30
2023-02-24T12:26:18.766Z,72.92
2023-02-24T12:29:20.820Z,72.75
2023-02-24T12:32:25.147Z,72.80
2023-02-24T12:35:22.027Z,72.62
2023-02-24T12:38:28.783Z,72.36
2023-02-24T12:41:36.303Z,72.59
2023-02-24T12:44:35.464Z,72.49
2023-02-24T12:47:36.572Z,72.37
2023-02-24T12:50:37.618Z,72.13
2023-02-24T12:53:35.446Z,71.85
2023-02-24T12:56:28.081Z,72.01
2023-02-24T12:59:23.226Z,71.50
2023-02-24T13:02:21.123Z,71.34
2023-02-24T13:05:20.237Z,71.56
2023-02-24T13:08:29.589Z,71.31
2023-02-24T13:11:28.548Z,71.10
2023-02-24T13:14:25.533Z,70.61
2023-02-24T13:17:22.523Z,70.66
2023-02-24T13:20:15.110Z,70.66
2023-02-24T13:23:20.250Z,70.40
2023-02-24T13:26:10.384Z,70.58
2023-02-24T13:29:02.611Z,70.33
2023-02-24T13:31:53.325Z,70.40
2023-02-24T13:34:46.070Z,70.09
2023-02-24T13:37:38.871Z,70.48
2023-02-24T13:40:28.580Z,70.03
2023-02-24T13:43:28.812Z,70.06
2023-02-24T13:46:19.601Z,70.20
2023-02-24T13:49:29.106Z,70.10
2023-02-24T13:52:30.371Z,69.73
2023-02-24T13:55:32.960Z,69.64
2023-02-24T13:58:35.423Z,69.38
2023-02-24T14:01:34.191Z,69.43
2023-02-24T14:04:28.338Z,69.22
2023-02-24T14:07:23.639Z,69.14
2023-02-24T14:10:19.475Z,69.19
2023-02-24T14:13:17.718Z,69.16
2023-02-24T14:16:13.735Z,69.09
2023-02-24T14:19:04.027Z,68.87
2023-02-24T14:21:56.176Z,69.11
2023-02-24T14:24:44.812Z,68.86
2023-02-24T14:27:34.910Z,68.51
2023-02-24T14:30:33.123Z,68.38
2023-02-24T14:33:29.408Z,68.37
2023-02-24T14:36:21.719Z,68.09
2023-02-24T14:39:17.421Z,67.92
2023-02-24T14:42:13.237Z,68.13
2023-02-24T14:45:02.888Z,67.80
2023-02-24T14:47:53.306Z,67.93
2023-02-24T14:50:43.433Z,67.82
2023-02-24T14:53:36.923Z,67.78
2023-02-24T14:56:32.660Z,67.64
2023-02-24T14:59:29.974Z,67.81
2023-02-24T15:02:22.100Z,67.92
2023-02-24T15:05:12.698Z,67.75
2023-02-24T15:08:03.966Z,67.75
2023-02-24T15:10:53.299Z,68.11
2023-02-24T15:13:46.832Z,68.54
2023-02-24T15:16:40.389Z,68.47
2023-02-24T15:19:38.280Z,68.28
2023-02-24T15:22:29.962Z,68.42
2023-02-24T15:25:28.115Z,68.38
2023-02-24T15:28:26.305Z,68.12
2023-02-24T15:31:18.896Z,68.09
2023-02-24T15:34:18.943Z,68.50
2023-02-24T15:37:16.106Z,68.43
2023-02-24T15:40:18.925Z,68.52
2023-02-24T15:43:11.861Z,68.47
2023-02-24T15:46:00.649Z,68.68
2023-02-24T15:48:52.280Z,68.75
2023-02-24T15:51:42.737Z,68.63
2023-02-24T15:54:35.714Z,68.55
2023-02-24T15:57:27.873Z,68.80
2023-02-24T16:00:21.544Z,68.67
2023-02-24T16:03:10.519Z,68.74
2023-02-24T16:06:01.299Z,68.84
2023-02-24T16:08:53.614Z,68.94
2023-02-24T16:11:46.641Z,68.99
2023-02-24T16:14:36.758Z,68.86
2023-02-24T16:17:32.031Z,69.07
2023-02-24T16:20:27.373Z,68.92
2023-02-24T16:23:17.423Z,69.12
2023-02-24T16:26:06.805Z,68.83
2023-02-24T16:28:58.150Z,68.99
2023-02-24T16:31:48.778Z,68.88
2023-02-24T16:34:37.609Z,69.07
2023-02-24T16:37:29.807Z,69.05
2023-02-24T16:40:23.204Z,68.94
2023-02-24T16:43:13.394Z,69.17
2023-02-24T16:46:05.353Z,69.25
2023-02-24T16:48:55.525Z,69.35
2023-02-24T16:51:44.651Z,69.00
2023-02-24T16:54:33.744Z,69.04
2023-02-24T16:57:25.796Z,69.07
2023-02-24T17:00:17.171Z,69.27
2023-02-24T17:03:13.412Z,69.12
2023-02-24T17:06:03.703Z,69.16
2023-02-24T17:08:52.925Z,69.46
2023-02-24T17:11:42.013Z,69.46
2023-02-24T17:14:30.673Z,69.86
2023-02-24T17:17:20.684Z,69.44
2023-02-24T17:20:12.462Z,69.68
2023-02-24T17:23:03.327Z,70.06
2023-02-24T17:25:55.407Z,70.08
2023-02-24T17:28:44.734Z,70.31
2023-02-24T17:31:35.188Z,70.36
2023-02-24T17:34:24.255Z,70.72
2023-02-24T17:37:13.438Z,70.88
2023-02-24T17:40:05.491Z,70.80
2023-02-24T17:42:55.051Z,71.16
2023-02-24T17:45:45.406Z,71.33
2023-02-24T17:48:34.736Z,71.96
2023-02-24T17:51:23.381Z,72.14
2023-02-24T17:54:12.546Z,72.47
2023-02-24T17:57:02.530Z,73.13
2023-02-24T17:59:52.007Z,73.00
2023-02-24T18:02:41.446Z,73.60
2023-02-24T18:05:30.740Z,73.41
2023-02-24T18:08:19.399Z,73.62
2023-02-24T18:11:10.479Z,73.60
2023-02-24T18:14:01.213Z,73.85
2023-02-24T18:16:50.475Z,74.19
2023-02-24T18:19:39.689Z,74.23
2023-02-24T18:22:28.537Z,74.39
2023-02-24T18:25:17.980Z,74.32
2023-02-24T18:28:07.628Z,74.75
2023-02-24T18:30:58.489Z,74.86
2023-02-24T18:33:47.280Z,74.74
2023-02-24T18:36:36.014Z,74.98
2023-02-24T18:39:24.781Z,75.15
2023-02-24T18:42:13.421Z,75.43
2023-02-24T18:45:02.852Z,75.38
2023-02-24T18:47:53.680Z,75.74
2023-02-24T18:50:43.153Z,75.86
2023-02-24T18:53:36.799Z,75.91
2023-02-24T18:56:28.457Z,76.01
2023-02-24T18:59:17.068Z,75.17
2023-02-24T19:02:06.371Z,75.01
2023-02-24T19:04:56.418Z,74.85
2023-02-24T19:07:45.105Z,74.95
2023-02-24T19:10:33.781Z,75.13
2023-02-24T19:13:24.019Z,74.90
2023-02-24T19:16:13.167Z,75.21
2023-02-24T19:19:02.088Z,75.11
2023-02-24T19:21:53.260Z,75.19
2023-02-24T19:24:41.896Z,75.38
2023-02-24T19:27:31.127Z,75.19
2023-02-24T19:30:20.095Z,75.09
2023-02-24T19:33:09.649Z,75.09
2023-02-24T19:36:01.104Z,75.19
2023-02-24T19:38:51.184Z,75.40
2023-02-24T19:41:41.234Z,75.23
2023-02-24T19:44:29.876Z,74.97
2023-02-24T19:47:19.892Z,75.16
2023-02-24T19:50:09.538Z,75.16
2023-02-24T19:52:59.122Z,75.11
2023-02-24T19:55:52.771Z,74.99
2023-02-24T19:58:41.993Z,74.98
2023-02-24T20:01:31.746Z,75.27
2023-02-24T20:04:22.892Z,75.06
2023-02-24T20:07:11.773Z,75.27
2023-02-24T20:10:01.680Z,75.29
2023-02-24T20:12:51.690Z,75.10
2023-02-24T20:15:41.225Z,75.35
2023-02-24T20:18:31.025Z,75.02
2023-02-24T20:21:20.153Z,75.31
2023-02-24T20:24:13.180Z,74.94
2023-02-24T20:27:05.079Z,75.25
2023-02-24T20:29:55.879Z,75.07
2023-02-24T20:32:45.084Z,74.91
2023-02-24T20:35:34.102Z,75.07
2023-02-24T20:38:23.064Z,75.00
2023-02-24T20:41:12.478Z,74.93
2023-02-24T20:44:01.118Z,74.95
2023-02-24T20:46:51.681Z,74.88
2023-02-24T20:49:40.472Z,74.79
2023-02-24T20:52:30.311Z,74.94
2023-02-24T20:55:18.993Z,74.92
2023-02-24T20:58:08.198Z,74.78
2023-02-24T21:00:57.310Z,74.81
2023-02-24T21:03:47.922Z,74.89
2023-02-24T21:06:37.623Z,75.01
2023-02-24T21:09:27.435Z,74.92
2023-02-24T21:12:16.086Z,74.69
2023-02-24T21:15:06.867Z,74.75
2023-02-24T21:17:55.746Z,74.85
2023-02-24T21:20:45.829Z,74.77
2023-02-24T21:23:35.008Z,74.83
2023-02-24T21:26:26.778Z,74.71
2023-02-24T21:29:15.661Z,74.87
2023-02-24T21:32:05.352Z,74.90
2023-02-24T21:34:54.018Z,74.61
2023-02-24T21:37:44.037Z,74.83
2023-02-24T21:40:32.693Z,74.72
2023-02-24T21:43:23.140Z,74.75
2023-02-24T21:46:14.514Z,74.55
2023-02-24T21:49:03.670Z,73.73
2023-02-24T21:51:54.734Z,73.62
2023-02-24T21:54:45.276Z,73.51
2023-02-24T21:57:40.996Z,73.30
2023-02-24T22:00:30.295Z,73.23
2023-02-24T22:03:19.045Z,73.13
2023-02-24T22:06:11.151Z,72.90
2023-02-24T22:09:00.899Z,72.65
2023-02-24T22:11:51.622Z,72.73
2023-02-24T22:14:40.264Z,72.61
2023-02-24T22:17:29.786Z,72.64
2023-02-24T22:20:18.726Z,72.46
2023-02-24T22:23:08.203Z,72.41
2023-02-24T22:25:56.811Z,72.51
2023-02-24T22:28:48.996Z,72.51
2023-02-24T22:31:39.127Z,72.46
2023-02-24T22:34:29.561Z,72.75
2023-02-24T22:37:18.364Z,72.50
2023-02-24T22:40:09.665Z,72.51
2023-02-24T22:42:58.718Z,72.62
2023-02-24T22:45:57.012Z,72.12
2023-02-24T22:48:46.452Z,72.34
2023-02-24T22:51:35.725Z,72.24
2023-02-24T22:54:25.366Z,72.26
2023-02-24T22:57:14.720Z,72.23
2023-02-24T23:00:09.839Z,72.30
2023-02-24T23:02:59.888Z,72.32
2023-02-24T23:05:55.920Z,72.03
2023-02-24T23:08:47.150Z,72.09
2023-02-24T23:11:38.958Z,71.88
2023-02-24T23:14:28.523Z,71.94
2023-02-24T23:17:17.771Z,71.78
2023-02-24T23:20:13.597Z,71.82
2023-02-24T23:23:02.662Z,71.81
2023-02-24T23:25:52.967Z,71.74
2023-02-24T23:28:41.832Z,71.73
2023-02-24T23:31:31.496Z,71.84
2023-02-24T23:34:21.150Z,71.83
2023-02-24T23:37:13.356Z,71.79
2023-02-24T23:40:03.681Z,71.70
2023-02-24T23:42:53.025Z,71.65
2023-02-24T23:45:42.741Z,71.69
2023-02-24T23:48:32.502Z,71.48
2023-02-24T23:51:22.739Z,71.67
2023-02-24T23:54:14.125Z,71.65
2023-02-24T23:57:03.745Z,71.69
2023-02-24T23:59:52.387Z,71.74
